Time;durP1;ratioP1;P1;durP2;ratioP2;P2;SDS_P1;SDS_P2;PMS_P1;PMS_P2;Temp;Humidity;BMP_temperature;BMP_pressure;BME280_temperature;BME280_humidity;BME280_pressure;Samples;Min_cycle;Max_cycle;Signal;HPM_P1;HPM_P2
2022/03/11 00:00:50;;;;;;;;;26.25;24.25;;;;;;;;5036101;28;45358;-77
2022/03/11 00:03:16;;;;;;;;;30.75;24.50;;;;;;;;5036827;28;45471;-77
2022/03/11 00:05:41;;;;;;;;;25.50;20.00;;;;;;;;5034224;28;45443;-76
2022/03/11 00:08:07;;;;;;;;;28.75;24.75;;;;;;;;5035804;28;47200;-74
2022/03/11 00:10:33;;;;;;;;;27.50;23.50;;;;;;;;5036018;28;45378;-76
2022/03/11 00:12:58;;;;;;;;;24.50;24.25;;;;;;;;5036057;28;45496;-76
2022/03/11 00:15:24;;;;;;;;;26.50;21.75;;;;;;;;5036318;28;45500;-75
2022/03/11 00:17:50;;;;;;;;;26.75;24.25;;;;;;;;5035694;28;47189;-75
2022/03/11 00:20:20;;;;;;;;;23.00;19.00;;;;;;;;5035268;28;45453;-75
2022/03/11 00:22:46;;;;;;;;;22.25;21.50;;;;;;;;5035618;28;45420;-75
2022/03/11 00:25:11;;;;;;;;;25.50;23.50;;;;;;;;5035546;28;45448;-74
2022/03/11 00:27:37;;;;;;;;;25.25;22.25;;;;;;;;5019464;28;46040;-76
2022/03/11 00:30:03;;;;;;;;;17.50;16.00;;;;;;;;5035440;28;45456;-76
2022/03/11 00:32:28;;;;;;;;;27.50;24.50;;;;;;;;5033956;28;45517;-75
2022/03/11 00:34:53;;;;;;;;;23.75;22.25;;;;;;;;5034769;28;45474;-76
2022/03/11 00:37:18;;;;;;;;;27.50;26.00;;;;;;;;5034959;28;47527;-76
2022/03/11 00:39:43;;;;;;;;;24.50;23.25;;;;;;;;5035242;28;45710;-76
2022/03/11 00:42:09;;;;;;;;;31.00;26.50;;;;;;;;5035820;28;45518;-77
2022/03/11 00:44:35;;;;;;;;;24.25;23.00;;;;;;;;5035054;28;45358;-75
2022/03/11 00:47:00;;;;;;;;;26.50;22.00;;;;;;;;5035019;28;46391;-75
2022/03/11 00:49:25;;;;;;;;;22.00;22.00;;;;;;;;5034576;28;45525;-75
2022/03/11 00:51:50;;;;;;;;;23.75;23.75;;;;;;;;5034929;28;45809;-78
2022/03/11 00:54:16;;;;;;;;;30.50;25.75;;;;;;;;5035490;28;45561;-75
2022/03/11 00:56:41;;;;;;;;;26.75;25.25;;;;;;;;5034895;28;45539;-74
2022/03/11 00:59:06;;;;;;;;;26.50;23.00;;;;;;;;5034684;28;45547;-75
2022/03/11 01:01:31;;;;;;;;;23.00;22.50;;;;;;;;5035303;28;45614;-74
2022/03/11 01:03:57;;;;;;;;;29.25;26.25;;;;;;;;5034632;28;45351;-76
2022/03/11 01:06:22;;;;;;;;;21.25;19.25;;;;;;;;5020908;28;46996;-78
2022/03/11 01:08:48;;;;;;;;;17.75;16.00;;;;;;;;5033196;28;45527;-75
2022/03/11 01:11:13;;;;;;;;;24.50;22.25;;;;;;;;5035043;28;45421;-74
2022/03/11 01:13:38;;;;;;;;;19.00;17.50;;;;;;;;5034754;28;45523;-75
2022/03/11 01:16:04;;;;;;;;;20.75;16.25;;;;;;;;5018544;28;46195;-75
2022/03/11 01:18:29;;;;;;;;;20.25;19.00;;;;;;;;5035170;28;45371;-75
2022/03/11 01:20:56;;;;;;;;;23.50;22.75;;;;;;;;5034864;28;45599;-75
2022/03/11 01:23:21;;;;;;;;;26.00;22.00;;;;;;;;5034781;28;45504;-76
2022/03/11 01:25:46;;;;;;;;;23.00;18.50;;;;;;;;5034054;28;46156;-76
2022/03/11 01:28:13;;;;;;;;;20.25;19.00;;;;;;;;5034408;28;45380;-75
2022/03/11 01:30:38;;;;;;;;;26.75;24.50;;;;;;;;5034900;28;45361;-75
2022/03/11 01:33:04;;;;;;;;;23.25;22.75;;;;;;;;5034125;28;45458;-76
2022/03/11 01:35:29;;;;;;;;;31.75;27.50;;;;;;;;5034232;28;46271;-76
2022/03/11 01:37:55;;;;;;;;;26.50;21.50;;;;;;;;5034342;28;45461;-76
2022/03/11 01:40:21;;;;;;;;;25.75;23.00;;;;;;;;5034815;28;45356;-76
2022/03/11 01:42:46;;;;;;;;;21.50;18.50;;;;;;;;5034741;28;45378;-76
2022/03/11 01:45:11;;;;;;;;;20.50;20.50;;;;;;;;5021986;28;46024;-76
2022/03/11 01:47:36;;;;;;;;;27.00;21.25;;;;;;;;5030407;28;45311;-76
2022/03/11 01:50:02;;;;;;;;;27.00;26.50;;;;;;;;5034238;28;45363;-76
2022/03/11 01:52:27;;;;;;;;;27.75;24.75;;;;;;;;5034411;28;45492;-76
2022/03/11 01:54:53;;;;;;;;;25.25;21.75;;;;;;;;5034135;28;45342;-76
2022/03/11 01:57:18;;;;;;;;;24.00;21.75;;;;;;;;5034559;28;45351;-74
2022/03/11 01:59:44;;;;;;;;;21.00;19.00;;;;;;;;5034000;28;45409;-76
2022/03/11 02:02:09;;;;;;;;;22.75;21.50;;;;;;;;5033832;28;45353;-76
2022/03/11 02:04:34;;;;;;;;;20.50;20.50;;;;;;;;5033797;28;46172;-77
2022/03/11 02:07:00;;;;;;;;;24.50;22.50;;;;;;;;5034228;28;45571;-76
2022/03/11 02:09:25;;;;;;;;;20.25;18.75;;;;;;;;5034932;28;45244;-76
2022/03/11 02:11:50;;;;;;;;;18.25;17.25;;;;;;;;5034296;28;45158;-76
2022/03/11 02:14:16;;;;;;;;;22.25;21.25;;;;;;;;5033935;28;45988;-77
2022/03/11 02:16:41;;;;;;;;;17.00;17.00;;;;;;;;5032377;28;45469;-76
2022/03/11 02:19:07;;;;;;;;;22.25;19.75;;;;;;;;5034049;28;45279;-76
2022/03/11 02:21:41;;;;;;;;;21.25;21.25;;;;;;;;5030225;28;45436;-76
2022/03/11 02:24:07;;;;;;;;;21.00;16.00;;;;;;;;5034085;28;47427;-76
2022/03/11 02:26:33;;;;;;;;;27.25;22.00;;;;;;;;5033844;28;45511;-76
2022/03/11 02:28:59;;;;;;;;;24.50;19.75;;;;;;;;5035479;28;45554;-76
2022/03/11 02:31:27;;;;;;;;;20.75;20.75;;;;;;;;5038137;28;45410;-76
2022/03/11 02:33:52;;;;;;;;;24.00;20.75;;;;;;;;5036140;28;47420;-76
2022/03/11 02:36:21;;;;;;;;;21.25;19.75;;;;;;;;5037704;28;45516;-76
2022/03/11 02:38:46;;;;;;;;;26.50;23.75;;;;;;;;5037571;28;47373;-76
2022/03/11 02:41:11;;;;;;;;;26.50;20.75;;;;;;;;5037207;28;45373;-75
2022/03/11 02:43:37;;;;;;;;;30.25;24.75;;;;;;;;5037092;28;46761;-76
2022/03/11 02:46:02;;;;;;;;;23.75;22.00;;;;;;;;5036969;28;45419;-77
2022/03/11 02:48:27;;;;;;;;;13.00;13.00;;;;;;;;5037885;28;45335;-75
2022/03/11 02:50:53;;;;;;;;;24.50;22.25;;;;;;;;5037003;28;45336;-77
2022/03/11 02:53:18;;;;;;;;;21.25;20.75;;;;;;;;5037105;28;46226;-75
2022/03/11 02:55:43;;;;;;;;;25.50;23.25;;;;;;;;5037001;28;45382;-76
2022/03/11 02:58:09;;;;;;;;;22.50;19.00;;;;;;;;5036961;28;45443;-76
2022/03/11 03:00:34;;;;;;;;;18.25;17.50;;;;;;;;5037454;28;45996;-77
2022/03/11 03:02:59;;;;;;;;;20.00;19.50;;;;;;;;5025804;28;45496;-75
2022/03/11 03:05:24;;;;;;;;;29.00;22.75;;;;;;;;5031835;28;45547;-76
2022/03/11 03:07:50;;;;;;;;;25.00;23.00;;;;;;;;5037011;28;45414;-76
2022/03/11 03:10:15;;;;;;;;;20.50;19.00;;;;;;;;5036722;28;45512;-76
2022/03/11 03:12:40;;;;;;;;;14.50;12.50;;;;;;;;5036817;28;46896;-76
2022/03/11 03:15:06;;;;;;;;;18.75;15.75;;;;;;;;5036860;28;45296;-76
2022/03/11 03:17:32;;;;;;;;;20.75;20.75;;;;;;;;5036697;28;45509;-76
2022/03/11 03:19:57;;;;;;;;;20.75;18.25;;;;;;;;5036592;28;45531;-75
2022/03/11 03:22:22;;;;;;;;;22.25;19.75;;;;;;;;5036369;28;46161;-75
2022/03/11 03:24:47;;;;;;;;;22.25;21.25;;;;;;;;5036513;28;45603;-76
2022/03/11 03:27:13;;;;;;;;;27.75;23.50;;;;;;;;5037129;28;45433;-75
2022/03/11 03:29:38;;;;;;;;;21.25;20.00;;;;;;;;5036155;28;45417;-76
2022/03/11 03:32:04;;;;;;;;;22.25;20.25;;;;;;;;5036298;28;46115;-76
2022/03/11 03:34:31;;;;;;;;;22.50;21.25;;;;;;;;5037069;28;45366;-76
2022/03/11 03:36:57;;;;;;;;;25.25;21.75;;;;;;;;5036787;28;45399;-74
2022/03/11 03:39:22;;;;;;;;;21.75;17.75;;;;;;;;5036891;28;45437;-77
2022/03/11 03:41:47;;;;;;;;;23.50;21.50;;;;;;;;5026387;28;46090;-76
2022/03/11 03:44:13;;;;;;;;;23.25;21.00;;;;;;;;5029489;28;45580;-76
2022/03/11 03:46:38;;;;;;;;;20.00;19.00;;;;;;;;5036377;28;45756;-74
2022/03/11 03:49:03;;;;;;;;;23.75;17.50;;;;;;;;5036377;28;45390;-76
2022/03/11 03:51:28;;;;;;;;;24.25;20.75;;;;;;;;5036403;28;46070;-76
2022/03/11 03:53:54;;;;;;;;;22.00;18.25;;;;;;;;5035680;28;45531;-75
2022/03/11 03:56:19;;;;;;;;;24.00;22.25;;;;;;;;5036084;28;45378;-75
2022/03/11 03:58:44;;;;;;;;;23.75;21.50;;;;;;;;5035086;28;45367;-74
2022/03/11 04:01:09;;;;;;;;;24.00;19.25;;;;;;;;5035942;28;45475;-76
2022/03/11 04:03:35;;;;;;;;;27.75;24.50;;;;;;;;5036681;28;45419;-76
2022/03/11 04:06:00;;;;;;;;;28.75;26.00;;;;;;;;5035926;28;45298;-77
2022/03/11 04:08:26;;;;;;;;;20.75;19.75;;;;;;;;5036361;28;45742;-76
2022/03/11 04:10:52;;;;;;;;;21.25;20.00;;;;;;;;5035730;28;46943;-76
2022/03/11 04:13:17;;;;;;;;;21.50;18.00;;;;;;;;5033385;28;45477;-76
2022/03/11 04:15:42;;;;;;;;;21.50;20.75;;;;;;;;5036055;28;45335;-76
2022/03/11 04:18:07;;;;;;;;;25.50;19.75;;;;;;;;5036287;28;45433;-76
2022/03/11 04:20:33;;;;;;;;;23.00;22.75;;;;;;;;5026217;28;47747;-76
2022/03/11 04:22:58;;;;;;;;;17.25;17.25;;;;;;;;5027126;28;45425;-76
2022/03/11 04:25:23;;;;;;;;;18.50;17.75;;;;;;;;5035633;28;45157;-75
2022/03/11 04:27:48;;;;;;;;;17.50;17.25;;;;;;;;5035380;28;45222;-75
2022/03/11 04:30:13;;;;;;;;;22.25;20.50;;;;;;;;5035639;28;45316;-75
2022/03/11 04:32:39;;;;;;;;;22.25;18.50;;;;;;;;5035445;28;45417;-76
2022/03/11 04:35:04;;;;;;;;;22.75;19.50;;;;;;;;5035336;28;45323;-76
2022/03/11 04:37:29;;;;;;;;;20.00;20.00;;;;;;;;5034961;28;45174;-75
2022/03/11 04:39:57;;;;;;;;;20.75;17.75;;;;;;;;5034636;28;46188;-75
2022/03/11 04:42:22;;;;;;;;;21.25;17.00;;;;;;;;5034985;28;45346;-76
2022/03/11 04:44:47;;;;;;;;;21.00;19.25;;;;;;;;5034629;28;45822;-76
2022/03/11 04:47:12;;;;;;;;;18.00;17.50;;;;;;;;5034766;28;45402;-75
2022/03/11 04:49:37;;;;;;;;;13.75;11.75;;;;;;;;5034280;28;46503;-75
2022/03/11 04:52:04;;;;;;;;;22.00;21.00;;;;;;;;5018344;28;45307;-75
2022/03/11 04:54:30;;;;;;;;;17.50;15.50;;;;;;;;5035415;28;45389;-76
2022/03/11 04:56:55;;;;;;;;;22.50;19.50;;;;;;;;5034918;28;45916;-75
2022/03/11 04:59:20;;;;;;;;;20.50;18.25;;;;;;;;5028414;28;45475;-75
2022/03/11 05:01:45;;;;;;;;;18.50;16.50;;;;;;;;5024025;28;45561;-75
2022/03/11 05:04:11;;;;;;;;;15.75;15.75;;;;;;;;5035006;28;45405;-74
2022/03/11 05:06:36;;;;;;;;;13.50;13.25;;;;;;;;5035428;28;45370;-74
2022/03/11 05:09:01;;;;;;;;;16.75;15.25;;;;;;;;5034589;28;46063;-76
2022/03/11 05:11:26;;;;;;;;;16.75;14.75;;;;;;;;5034168;28;45355;-74
2022/03/11 05:13:51;;;;;;;;;21.75;17.25;;;;;;;;5034567;28;45380;-77
2022/03/11 05:16:17;;;;;;;;;14.25;14.25;;;;;;;;5035008;28;45489;-75
2022/03/11 05:18:42;;;;;;;;;19.00;17.75;;;;;;;;5034517;28;46089;-76
2022/03/11 05:21:07;;;;;;;;;12.50;9.00;;;;;;;;5034602;28;45429;-75
2022/03/11 05:23:32;;;;;;;;;16.00;15.00;;;;;;;;5033981;28;45473;-75
2022/03/11 05:25:57;;;;;;;;;17.25;15.25;;;;;;;;5034525;28;45311;-75
2022/03/11 05:28:23;;;;;;;;;17.50;16.00;;;;;;;;5034484;28;46054;-76
2022/03/11 05:30:48;;;;;;;;;9.75;9.75;;;;;;;;5035026;28;45525;-76
2022/03/11 05:33:13;;;;;;;;;17.25;14.00;;;;;;;;5035034;28;45322;-76
2022/03/11 05:35:38;;;;;;;;;19.25;13.75;;;;;;;;5034423;28;45469;-76
2022/03/11 05:38:03;;;;;;;;;18.75;15.75;;;;;;;;5030208;28;46208;-75
2022/03/11 05:40:29;;;;;;;;;15.50;11.25;;;;;;;;5021872;28;45466;-75
2022/03/11 05:42:54;;;;;;;;;18.25;14.50;;;;;;;;5033653;28;45462;-77
2022/03/11 05:45:19;;;;;;;;;17.75;13.25;;;;;;;;5034266;28;45394;-77
2022/03/11 05:47:45;;;;;;;;;16.00;15.25;;;;;;;;5033902;28;46137;-75
2022/03/11 05:50:10;;;;;;;;;14.00;14.00;;;;;;;;5033829;28;45423;-75
2022/03/11 05:52:39;;;;;;;;;16.00;14.50;;;;;;;;5033508;28;45614;-75
2022/03/11 05:55:05;;;;;;;;;14.25;11.75;;;;;;;;5017774;28;45517;-75
2022/03/11 05:57:30;;;;;;;;;13.50;10.00;;;;;;;;5033205;28;46797;-75
2022/03/11 05:59:55;;;;;;;;;13.75;13.25;;;;;;;;5033776;28;45228;-75
2022/03/11 06:02:21;;;;;;;;;13.50;13.00;;;;;;;;5033227;28;45383;-77
2022/03/11 06:04:46;;;;;;;;;11.00;9.00;;;;;;;;5033122;28;46786;-75
2022/03/11 06:07:12;;;;;;;;;13.25;9.25;;;;;;;;5033089;28;46113;-76
2022/03/11 06:09:37;;;;;;;;;16.50;14.00;;;;;;;;5033636;28;45369;-80
2022/03/11 06:12:03;;;;;;;;;16.50;14.25;;;;;;;;5033691;28;45468;-80
2022/03/11 06:14:28;;;;;;;;;13.00;13.00;;;;;;;;5032877;28;45278;-80
2022/03/11 06:16:54;;;;;;;;;10.00;9.50;;;;;;;;5032539;28;46069;-81
2022/03/11 06:19:19;;;;;;;;;12.50;12.50;;;;;;;;5033030;28;45484;-79
2022/03/11 06:21:44;;;;;;;;;7.25;7.25;;;;;;;;5032914;28;45200;-81
2022/03/11 06:24:10;;;;;;;;;8.50;8.00;;;;;;;;5032904;28;45321;-79
2022/03/11 06:26:35;;;;;;;;;11.00;11.00;;;;;;;;5032230;28;47317;-80
2022/03/11 06:29:00;;;;;;;;;14.50;11.25;;;;;;;;5032188;28;45466;-79
2022/03/11 06:31:25;;;;;;;;;8.25;7.25;;;;;;;;5033050;28;45432;-80
2022/03/11 06:33:51;;;;;;;;;10.25;10.25;;;;;;;;5033126;28;45417;-81
2022/03/11 06:36:16;;;;;;;;;17.00;10.75;;;;;;;;5033432;28;45334;-81
2022/03/11 06:38:41;;;;;;;;;11.00;10.00;;;;;;;;5027629;28;45459;-81
2022/03/11 06:41:07;;;;;;;;;11.25;9.25;;;;;;;;5025836;28;45370;-75
2022/03/11 06:43:33;;;;;;;;;12.50;9.25;;;;;;;;5021931;28;45432;-81
2022/03/11 06:45:58;;;;;;;;;13.50;9.25;;;;;;;;5032398;28;46455;-82
2022/03/11 06:48:24;;;;;;;;;11.50;11.25;;;;;;;;5034728;28;45519;-81
2022/03/11 06:50:49;;;;;;;;;12.00;10.25;;;;;;;;5031887;28;45435;-81
2022/03/11 06:53:15;;;;;;;;;10.50;9.75;;;;;;;;5026889;28;45315;-81
2022/03/11 06:55:40;;;;;;;;;11.25;11.00;;;;;;;;5020589;28;46048;-81
2022/03/11 06:58:06;;;;;;;;;15.50;12.25;;;;;;;;5016168;28;45485;-81
2022/03/11 07:00:31;;;;;;;;;7.00;7.00;;;;;;;;5032716;28;45380;-81
2022/03/11 07:02:56;;;;;;;;;10.50;9.50;;;;;;;;5022177;28;46157;-80
2022/03/11 07:05:22;;;;;;;;;14.00;7.00;;;;;;;;5020867;28;46970;-82
2022/03/11 07:07:47;;;;;;;;;8.00;8.00;;;;;;;;5022175;28;45497;-81
2022/03/11 07:10:12;;;;;;;;;4.75;3.50;;;;;;;;5032982;28;45398;-82
2022/03/11 07:12:38;;;;;;;;;10.75;10.25;;;;;;;;5016208;28;45440;-81
2022/03/11 07:15:05;;;;;;;;;10.75;10.00;;;;;;;;5033557;28;46848;-80
2022/03/11 07:17:30;;;;;;;;;6.25;6.25;;;;;;;;5035376;28;45532;-81
2022/03/11 07:19:55;;;;;;;;;8.00;6.25;;;;;;;;5035835;28;45507;-81
2022/03/11 07:22:21;;;;;;;;;11.00;8.75;;;;;;;;5037168;28;45596;-81
2022/03/11 07:24:46;;;;;;;;;9.25;7.25;;;;;;;;5035884;28;46234;-81
2022/03/11 07:27:12;;;;;;;;;8.75;8.75;;;;;;;;5035414;28;45365;-82
2022/03/11 07:29:37;;;;;;;;;10.25;9.00;;;;;;;;5035147;28;45390;-81
2022/03/11 07:32:02;;;;;;;;;5.50;5.50;;;;;;;;5035125;28;45449;-81
2022/03/11 07:34:28;;;;;;;;;11.50;10.00;;;;;;;;5034388;28;46102;-81
2022/03/11 07:36:53;;;;;;;;;8.75;7.00;;;;;;;;5035382;28;45699;-81
2022/03/11 07:39:18;;;;;;;;;10.00;8.75;;;;;;;;5035037;28;45577;-83
2022/03/11 07:41:43;;;;;;;;;10.75;9.00;;;;;;;;5024635;28;45470;-83
2022/03/11 07:44:09;;;;;;;;;11.50;9.50;;;;;;;;5022249;28;47325;-80
2022/03/11 07:46:35;;;;;;;;;11.50;10.00;;;;;;;;5032325;28;45442;-79
2022/03/11 07:49:01;;;;;;;;;10.25;7.75;;;;;;;;5018339;28;45331;-79
2022/03/11 07:51:27;;;;;;;;;8.00;6.50;;;;;;;;5020005;28;45379;-77
2022/03/11 07:53:52;;;;;;;;;8.25;7.00;;;;;;;;5032821;28;46012;-78
2022/03/11 07:56:17;;;;;;;;;7.25;7.25;;;;;;;;5034160;28;45469;-77
2022/03/11 07:58:43;;;;;;;;;9.75;8.75;;;;;;;;5033972;28;45408;-78
2022/03/11 08:01:09;;;;;;;;;9.25;9.25;;;;;;;;5035303;28;45427;-78
2022/03/11 08:03:34;;;;;;;;;9.25;7.00;;;;;;;;5018812;28;46412;-77
2022/03/11 08:06:00;;;;;;;;;6.75;6.75;;;;;;;;5032785;28;45448;-76
2022/03/11 08:08:26;;;;;;;;;5.50;5.00;;;;;;;;5033492;28;45526;-78
2022/03/11 08:10:52;;;;;;;;;12.50;8.25;;;;;;;;5033079;28;45402;-77
2022/03/11 08:13:17;;;;;;;;;9.75;9.50;;;;;;;;5033264;28;46352;-76
2022/03/11 08:15:43;;;;;;;;;8.00;6.00;;;;;;;;5017772;28;45358;-78
2022/03/11 08:18:08;;;;;;;;;5.50;5.00;;;;;;;;5034079;28;45354;-76
2022/03/11 08:20:33;;;;;;;;;8.50;7.75;;;;;;;;5033924;28;45394;-78
2022/03/11 08:22:58;;;;;;;;;7.00;6.00;;;;;;;;5031884;28;47222;-77
2022/03/11 08:25:26;;;;;;;;;8.50;8.50;;;;;;;;5033787;28;45311;-78
2022/03/11 08:27:53;;;;;;;;;6.75;6.50;;;;;;;;5033648;28;45434;-78
2022/03/11 08:30:18;;;;;;;;;10.25;8.00;;;;;;;;5034641;28;45355;-78
2022/03/11 08:32:43;;;;;;;;;7.00;7.00;;;;;;;;5033252;28;45498;-78
2022/03/11 08:35:09;;;;;;;;;7.00;5.50;;;;;;;;5033641;28;47706;-77
2022/03/11 08:37:34;;;;;;;;;11.50;10.00;;;;;;;;5033552;28;45722;-77
2022/03/11 08:39:59;;;;;;;;;10.25;8.00;;;;;;;;5033591;28;45458;-79
2022/03/11 08:42:25;;;;;;;;;7.00;7.00;;;;;;;;5034967;28;46031;-78
2022/03/11 08:44:50;;;;;;;;;8.00;7.00;;;;;;;;5033760;28;45236;-77
2022/03/11 08:47:15;;;;;;;;;10.00;8.75;;;;;;;;5032967;28;45522;-77
2022/03/11 08:49:40;;;;;;;;;9.50;8.25;;;;;;;;5033276;28;45570;-78
2022/03/11 08:52:06;;;;;;;;;8.75;7.00;;;;;;;;5033000;28;47086;-77
2022/03/11 08:54:31;;;;;;;;;7.75;6.25;;;;;;;;5018720;28;45205;-77
2022/03/11 08:56:59;;;;;;;;;5.00;2.50;;;;;;;;5032823;28;45260;-78
2022/03/11 08:59:24;;;;;;;;;6.00;6.00;;;;;;;;5032766;28;45548;-78
2022/03/11 09:01:49;;;;;;;;;6.25;6.25;;;;;;;;5032554;28;47293;-77
2022/03/11 09:04:15;;;;;;;;;5.00;3.50;;;;;;;;5033307;28;45419;-78
2022/03/11 09:06:40;;;;;;;;;5.00;5.00;;;;;;;;5033595;28;45385;-77
2022/03/11 09:09:05;;;;;;;;;6.00;5.00;;;;;;;;5033329;28;45565;-77
2022/03/11 09:11:33;;;;;;;;;9.00;6.50;;;;;;;;5032648;28;46110;-77
2022/03/11 09:13:58;;;;;;;;;3.50;3.50;;;;;;;;5032734;28;45318;-78
2022/03/11 09:16:23;;;;;;;;;7.50;6.50;;;;;;;;5033054;28;45608;-76
2022/03/11 09:18:49;;;;;;;;;6.00;6.00;;;;;;;;5033217;28;45216;-78
2022/03/11 09:21:14;;;;;;;;;9.00;8.50;;;;;;;;5033090;28;46311;-78
2022/03/11 09:23:39;;;;;;;;;4.50;4.50;;;;;;;;5032573;28;45292;-78
2022/03/11 09:26:05;;;;;;;;;6.75;6.75;;;;;;;;5029442;28;45321;-78
2022/03/11 09:28:31;;;;;;;;;4.25;4.25;;;;;;;;5021345;28;45538;-78
2022/03/11 09:30:56;;;;;;;;;4.50;4.00;;;;;;;;5033304;28;45476;-78
2022/03/11 09:33:22;;;;;;;;;3.00;3.00;;;;;;;;5019272;28;45416;-77
2022/03/11 09:35:47;;;;;;;;;3.75;3.25;;;;;;;;5030908;28;45474;-77
2022/03/11 09:38:12;;;;;;;;;6.25;6.25;;;;;;;;5032900;28;45370;-78
2022/03/11 09:40:42;;;;;;;;;5.75;5.00;;;;;;;;5032995;28;46372;-78
2022/03/11 09:43:08;;;;;;;;;6.25;5.25;;;;;;;;5017316;28;45625;-78
2022/03/11 09:45:33;;;;;;;;;6.75;5.25;;;;;;;;5032876;28;45409;-77
2022/03/11 09:47:59;;;;;;;;;7.25;4.25;;;;;;;;5032215;28;45652;-76
2022/03/11 09:50:24;;;;;;;;;8.00;7.50;;;;;;;;5031949;28;47262;-77
2022/03/11 09:52:50;;;;;;;;;6.50;6.50;;;;;;;;5032387;28;45327;-77
2022/03/11 09:55:15;;;;;;;;;5.25;2.75;;;;;;;;5032884;28;45513;-78
2022/03/11 09:57:40;;;;;;;;;7.50;6.75;;;;;;;;5033320;28;45490;-77
2022/03/11 10:00:07;;;;;;;;;6.25;6.25;;;;;;;;5032800;28;46470;-78
2022/03/11 10:02:32;;;;;;;;;6.25;6.25;;;;;;;;5032763;28;45480;-78
2022/03/11 10:04:57;;;;;;;;;5.50;5.50;;;;;;;;5032454;28;45324;-78
2022/03/11 10:07:32;;;;;;;;;4.00;4.00;;;;;;;;5031764;28;45432;-77
2022/03/11 10:10:09;;;;;;;;;4.75;4.00;;;;;;;;5032705;28;46388;-78
2022/03/11 10:12:40;;;;;;;;;3.50;3.50;;;;;;;;5029444;28;45444;-78
2022/03/11 10:15:05;;;;;;;;;4.75;3.00;;;;;;;;5032894;28;45474;-78
2022/03/11 10:17:40;;;;;;;;;5.25;5.25;;;;;;;;5032426;28;45446;-77
2022/03/11 10:20:07;;;;;;;;;4.25;4.25;;;;;;;;5032423;28;47124;-79
2022/03/11 10:22:33;;;;;;;;;7.25;4.75;;;;;;;;5032335;28;45372;-78
2022/03/11 10:25:00;;;;;;;;;3.25;3.25;;;;;;;;5032168;28;45197;-78
2022/03/11 10:27:25;;;;;;;;;2.25;2.25;;;;;;;;5033238;28;45392;-77
2022/03/11 10:29:51;;;;;;;;;8.00;7.00;;;;;;;;5031502;28;46112;-77
2022/03/11 10:32:25;;;;;;;;;3.75;3.75;;;;;;;;5032073;28;45444;-79
2022/03/11 10:34:50;;;;;;;;;4.25;4.25;;;;;;;;5032288;28;45404;-77
2022/03/11 10:37:16;;;;;;;;;6.00;5.00;;;;;;;;5032220;28;45409;-77
2022/03/11 10:39:41;;;;;;;;;2.50;2.50;;;;;;;;5032005;28;47372;-78
2022/03/11 10:42:12;;;;;;;;;3.75;3.75;;;;;;;;5031845;28;45515;-78
2022/03/11 10:44:38;;;;;;;;;5.75;4.00;;;;;;;;5031802;28;45410;-76
2022/03/11 10:47:20;;;;;;;;;3.25;3.25;;;;;;;;5032172;28;45429;-77
2022/03/11 10:49:52;;;;;;;;;5.50;3.25;;;;;;;;5031715;28;47769;-77
2022/03/11 10:52:39;;;;;;;;;7.50;6.00;;;;;;;;5020817;28;45465;-77
2022/03/11 10:55:29;;;;;;;;;3.00;3.00;;;;;;;;5019839;28;45286;-78
2022/03/11 10:57:55;;;;;;;;;5.25;3.00;;;;;;;;5048531;28;45405;-78
2022/03/11 11:00:24;;;;;;;;;2.00;2.00;;;;;;;;5034728;28;47110;-78
2022/03/11 11:02:51;;;;;;;;;2.50;2.50;;;;;;;;5034776;28;45237;-77
2022/03/11 11:05:17;;;;;;;;;5.00;3.00;;;;;;;;5034391;28;45508;-77
2022/03/11 11:07:42;;;;;;;;;5.50;4.50;;;;;;;;5034836;28;45431;-76
2022/03/11 11:10:08;;;;;;;;;6.25;6.25;;;;;;;;5034576;28;45653;-78
2022/03/11 11:12:34;;;;;;;;;4.00;3.50;;;;;;;;5035568;28;45632;-77
2022/03/11 11:14:59;;;;;;;;;7.25;6.00;;;;;;;;5035122;28;45547;-78
2022/03/11 11:17:27;;;;;;;;;8.50;7.50;;;;;;;;5035262;28;45514;-78
2022/03/11 11:19:53;;;;;;;;;6.75;6.00;;;;;;;;5034338;28;46086;-78
2022/03/11 11:22:19;;;;;;;;;5.50;5.50;;;;;;;;5034715;28;45444;-78
2022/03/11 11:24:44;;;;;;;;;8.75;7.00;;;;;;;;5035162;28;45320;-77
2022/03/11 11:27:10;;;;;;;;;10.50;7.25;;;;;;;;5035475;28;45215;-78
2022/03/11 11:29:36;;;;;;;;;6.25;4.25;;;;;;;;5026532;28;46184;-77
2022/03/11 11:32:04;;;;;;;;;4.25;4.25;;;;;;;;5023532;28;45438;-78
2022/03/11 11:34:32;;;;;;;;;5.25;4.75;;;;;;;;5021665;28;45440;-76
2022/03/11 11:36:58;;;;;;;;;5.25;5.00;;;;;;;;5034649;28;45375;-79
2022/03/11 11:39:25;;;;;;;;;5.75;5.00;;;;;;;;5035345;28;46007;-77
2022/03/11 11:41:57;;;;;;;;;8.50;7.00;;;;;;;;5034293;28;45500;-78
2022/03/11 11:44:35;;;;;;;;;6.25;6.25;;;;;;;;5034124;28;45295;-79
2022/03/11 11:47:12;;;;;;;;;5.50;5.25;;;;;;;;5034867;28;45585;-78
2022/03/11 11:49:44;;;;;;;;;7.00;7.00;;;;;;;;5034353;28;46174;-79
2022/03/11 11:52:12;;;;;;;;;6.50;5.25;;;;;;;;5019660;28;45512;-77
2022/03/11 11:54:38;;;;;;;;;5.00;5.00;;;;;;;;5018933;28;45418;-78
2022/03/11 11:57:05;;;;;;;;;6.75;5.00;;;;;;;;5023160;28;45561;-77
2022/03/11 11:59:35;;;;;;;;;5.00;4.25;;;;;;;;5029734;28;46536;-78
2022/03/11 12:02:01;;;;;;;;;7.75;6.75;;;;;;;;5033956;28;45442;-76
2022/03/11 12:04:34;;;;;;;;;7.00;6.25;;;;;;;;5034495;28;45452;-79
2022/03/11 12:07:00;;;;;;;;;7.75;6.75;;;;;;;;5034399;28;45523;-77
2022/03/11 12:09:47;;;;;;;;;8.00;7.00;;;;;;;;5020360;28;46277;-77
2022/03/11 12:12:18;;;;;;;;;8.00;8.00;;;;;;;;5021157;28;45335;-78
2022/03/11 12:14:59;;;;;;;;;6.75;6.75;;;;;;;;5032176;28;45319;-78
2022/03/11 12:17:42;;;;;;;;;4.00;4.00;;;;;;;;5034728;28;45382;-78
2022/03/11 12:20:22;;;;;;;;;8.75;8.75;;;;;;;;5034078;28;45411;-77
2022/03/11 12:22:52;;;;;;;;;3.50;3.00;;;;;;;;5034116;28;45497;-78
2022/03/11 12:25:20;;;;;;;;;12.25;7.25;;;;;;;;5033637;28;45288;-77
2022/03/11 12:27:58;;;;;;;;;9.50;7.75;;;;;;;;5033952;28;45362;-77
2022/03/11 12:30:24;;;;;;;;;7.00;3.00;;;;;;;;5032459;28;46683;-78
2022/03/11 12:32:50;;;;;;;;;5.00;4.50;;;;;;;;5033752;28;45483;-78
2022/03/11 12:35:17;;;;;;;;;6.25;6.25;;;;;;;;5034100;28;45319;-78
2022/03/11 12:37:42;;;;;;;;;7.00;7.00;;;;;;;;5033573;28;45564;-78
2022/03/11 12:40:10;;;;;;;;;8.00;7.00;;;;;;;;5033436;28;45387;-78
2022/03/11 12:42:36;;;;;;;;;9.25;8.00;;;;;;;;5030225;28;45434;-79
2022/03/11 12:45:02;;;;;;;;;8.75;7.75;;;;;;;;5033264;28;45362;-77
2022/03/11 12:47:34;;;;;;;;;9.75;8.75;;;;;;;;5026421;28;45496;-78
2022/03/11 12:50:03;;;;;;;;;8.00;7.00;;;;;;;;5024290;28;45518;-79
2022/03/11 12:52:34;;;;;;;;;7.25;6.00;;;;;;;;5033030;28;45588;-77
2022/03/11 12:55:00;;;;;;;;;9.00;7.75;;;;;;;;5033022;28;45599;-78
2022/03/11 12:57:25;;;;;;;;;9.00;8.50;;;;;;;;5034185;28;45408;-77
2022/03/11 12:59:50;;;;;;;;;7.50;7.00;;;;;;;;5031833;28;48663;-79
2022/03/11 13:02:16;;;;;;;;;8.50;8.50;;;;;;;;5033127;28;45480;-78
2022/03/11 13:04:44;;;;;;;;;7.25;6.50;;;;;;;;5033567;28;45721;-78
2022/03/11 13:07:09;;;;;;;;;7.50;6.50;;;;;;;;5033649;28;45215;-77
2022/03/11 13:09:35;;;;;;;;;8.00;7.75;;;;;;;;5033840;28;46211;-78
2022/03/11 13:12:18;;;;;;;;;7.00;6.75;;;;;;;;5032445;28;45448;-78
2022/03/11 13:14:44;;;;;;;;;9.00;9.00;;;;;;;;5033415;28;45338;-78
2022/03/11 13:17:09;;;;;;;;;8.25;6.25;;;;;;;;5032381;28;45535;-78
2022/03/11 13:19:34;;;;;;;;;6.00;6.00;;;;;;;;5033381;28;46183;-78
2022/03/11 13:21:59;;;;;;;;;8.00;8.00;;;;;;;;5033360;28;45323;-75
2022/03/11 13:24:24;;;;;;;;;9.75;9.00;;;;;;;;5033981;28;45520;-78
2022/03/11 13:27:03;;;;;;;;;4.00;3.00;;;;;;;;5023957;28;45408;-77
2022/03/11 13:29:29;;;;;;;;;5.75;4.75;;;;;;;;5021929;28;47417;-77
2022/03/11 13:31:56;;;;;;;;;6.75;6.75;;;;;;;;5023806;28;45560;-78
2022/03/11 13:34:27;;;;;;;;;8.50;7.25;;;;;;;;5033453;28;45411;-77
2022/03/11 13:36:52;;;;;;;;;7.00;4.25;;;;;;;;5016735;28;45356;-77
2022/03/11 13:39:19;;;;;;;;;8.00;7.50;;;;;;;;5031956;28;46030;-79
2022/03/11 13:41:47;;;;;;;;;5.75;5.75;;;;;;;;5033248;28;45398;-77
2022/03/11 13:44:21;;;;;;;;;6.00;6.00;;;;;;;;5033077;28;45332;-78
2022/03/11 13:46:51;;;;;;;;;6.75;5.50;;;;;;;;5032851;28;45525;-77
2022/03/11 13:49:19;;;;;;;;;9.25;7.75;;;;;;;;5031714;28;45528;-78
2022/03/11 13:51:48;;;;;;;;;7.75;4.75;;;;;;;;5032543;28;45459;-78
2022/03/11 13:54:34;;;;;;;;;9.75;8.75;;;;;;;;5033251;28;45402;-78
2022/03/11 13:57:18;;;;;;;;;8.00;7.75;;;;;;;;5032696;28;45530;-78
2022/03/11 13:59:43;;;;;;;;;8.00;8.00;;;;;;;;5032406;28;46130;-76
2022/03/11 14:02:22;;;;;;;;;6.00;6.00;;;;;;;;5032654;28;45386;-78
2022/03/11 14:05:06;;;;;;;;;9.50;7.25;;;;;;;;5031532;28;45320;-79
2022/03/11 14:07:31;;;;;;;;;12.00;9.00;;;;;;;;5020002;28;45642;-77
2022/03/11 14:09:56;;;;;;;;;9.50;9.00;;;;;;;;5032618;28;45339;-79
2022/03/11 14:12:26;;;;;;;;;8.25;6.50;;;;;;;;5033048;28;45252;-78
2022/03/11 14:14:51;;;;;;;;;8.00;6.00;;;;;;;;5032792;28;45579;-78
2022/03/11 14:17:27;;;;;;;;;12.75;9.75;;;;;;;;5032029;28;45362;-77
2022/03/11 14:19:53;;;;;;;;;8.25;7.00;;;;;;;;5032101;28;46939;-78
2022/03/11 14:22:18;;;;;;;;;13.25;10.25;;;;;;;;5031113;28;45347;-78
2022/03/11 14:24:43;;;;;;;;;9.50;7.50;;;;;;;;5033904;28;45318;-76
2022/03/11 14:27:12;;;;;;;;;11.00;9.50;;;;;;;;5036307;28;45538;-76